createdAt,value
2018-10-18T00:00:19.486Z,52.23
2018-10-18T00:01:23.033Z,56.17
2018-10-18T00:02:26.623Z,53.13
2018-10-18T00:03:30.498Z,54.98
2018-10-18T00:04:33.933Z,60.23
2018-10-18T00:05:37.454Z,56.80
2018-10-18T00:06:41.053Z,58.50
2018-10-18T00:07:44.549Z,56.40
2018-10-18T00:08:48.056Z,58.60
2018-10-18T00:09:51.682Z,55.45
2018-10-18T00:10:55.246Z,55.65
2018-10-18T00:11:58.868Z,54.33
2018-10-18T00:13:02.452Z,53.80
2018-10-18T00:14:06.117Z,54.40
2018-10-18T00:15:10.218Z,51.95
2018-10-18T00:16:14.543Z,50.07
2018-10-18T00:17:23.215Z,51.23
2018-10-18T00:18:26.886Z,51.00
2018-10-18T00:19:30.380Z,52.60
2018-10-18T00:20:33.990Z,51.88
2018-10-18T00:21:37.594Z,51.17
2018-10-18T00:22:41.164Z,52.62
2018-10-18T00:23:44.731Z,50.00
2018-10-18T00:24:48.614Z,51.75
2018-10-18T00:25:52.266Z,54.40
2018-10-18T00:26:55.825Z,50.67
2018-10-18T00:28:00.172Z,53.00
2018-10-18T00:29:03.899Z,52.97
2018-10-18T00:30:10.031Z,55.70
2018-10-18T00:31:13.518Z,56.70
2018-10-18T00:32:17.184Z,55.23
2018-10-18T00:33:20.738Z,53.65
2018-10-18T00:34:24.306Z,50.28
2018-10-18T00:35:27.903Z,51.13
2018-10-18T00:36:31.491Z,50.48
2018-10-18T00:37:35.055Z,51.25
2018-10-18T00:38:38.657Z,50.45
2018-10-18T00:39:42.355Z,51.60
2018-10-18T00:40:45.888Z,51.25
2018-10-18T00:41:49.481Z,51.37
2018-10-18T00:42:53.114Z,45.70
2018-10-18T00:43:56.747Z,46.20
2018-10-18T00:45:00.265Z,44.60
2018-10-18T00:46:03.818Z,44.10
2018-10-18T00:47:07.802Z,45.55
2018-10-18T00:48:11.703Z,44.67
2018-10-18T00:49:15.176Z,43.73
2018-10-18T00:50:18.943Z,42.37
2018-10-18T00:51:22.343Z,42.53
2018-10-18T00:52:25.874Z,46.50
2018-10-18T00:53:29.490Z,42.23
2018-10-18T00:54:32.975Z,41.90
2018-10-18T00:55:36.548Z,43.60
2018-10-18T00:56:41.549Z,44.17
2018-10-18T00:57:45.143Z,42.43
2018-10-18T00:58:48.673Z,43.87
2018-10-18T00:59:52.254Z,44.07
2018-10-18T01:00:55.799Z,42.87
2018-10-18T01:01:59.430Z,42.43
2018-10-18T01:03:03.048Z,43.63
2018-10-18T01:04:06.663Z,41.68
2018-10-18T01:05:10.418Z,42.67
2018-10-18T01:06:14.062Z,42.97
2018-10-18T01:07:17.694Z,42.73
2018-10-18T01:08:21.331Z,42.15
2018-10-18T01:09:24.862Z,42.60
2018-10-18T01:10:29.048Z,42.75
2018-10-18T01:11:33.175Z,40.52
2018-10-18T01:12:36.813Z,40.92
2018-10-18T01:13:40.270Z,41.63
2018-10-18T01:14:43.886Z,38.48
2018-10-18T01:15:47.462Z,40.97
2018-10-18T01:16:55.286Z,36.05
2018-10-18T01:18:00.479Z,35.90
2018-10-18T01:19:04.182Z,36.73
2018-10-18T01:20:07.837Z,35.27
2018-10-18T01:21:11.694Z,35.78
2018-10-18T01:22:15.219Z,36.95
2018-10-18T01:23:18.779Z,33.75
2018-10-18T01:24:22.386Z,35.08
2018-10-18T01:25:25.891Z,33.53
2018-10-18T01:26:30.153Z,33.60
2018-10-18T01:27:33.666Z,33.28
2018-10-18T01:28:37.207Z,34.45
2018-10-18T01:29:40.858Z,34.08
2018-10-18T01:30:44.337Z,32.60
2018-10-18T01:31:47.850Z,31.48
2018-10-18T01:32:51.347Z,31.35
2018-10-18T01:33:54.883Z,31.60
2018-10-18T01:34:59.252Z,31.70
2018-10-18T01:36:03.328Z,30.45
2018-10-18T01:37:06.969Z,30.47
2018-10-18T01:38:11.640Z,30.15
2018-10-18T01:39:15.240Z,29.52
2018-10-18T01:40:18.799Z,28.30
2018-10-18T01:41:22.393Z,29.55
2018-10-18T01:42:25.910Z,29.82
2018-10-18T01:43:31.049Z,30.30
2018-10-18T01:44:35.415Z,30.10
2018-10-18T01:45:39.137Z,28.98
2018-10-18T01:46:43.666Z,28.15
2018-10-18T01:47:47.234Z,27.40
2018-10-18T01:48:50.821Z,28.30
2018-10-18T01:49:54.501Z,29.12
2018-10-18T01:50:58.425Z,27.50
2018-10-18T01:52:01.917Z,29.07
2018-10-18T01:53:06.020Z,28.17
2018-10-18T01:54:09.614Z,29.32
2018-10-18T01:55:13.152Z,27.40
2018-10-18T01:56:16.716Z,28.00
2018-10-18T01:57:20.419Z,27.37
2018-10-18T01:58:24.703Z,28.27
2018-10-18T01:59:28.693Z,27.93
2018-10-18T02:00:32.945Z,27.42
2018-10-18T02:01:36.464Z,26.00
2018-10-18T02:02:40.047Z,27.37
2018-10-18T02:03:43.933Z,27.05
2018-10-18T02:04:47.446Z,27.58
2018-10-18T02:05:51.100Z,25.50
2018-10-18T02:06:54.662Z,26.42
2018-10-18T02:07:58.170Z,25.80
2018-10-18T02:09:01.905Z,27.73
2018-10-18T02:10:06.144Z,25.83
2018-10-18T02:11:09.811Z,26.45
2018-10-18T02:12:13.507Z,24.27
2018-10-18T02:13:16.935Z,24.92
2018-10-18T02:14:20.438Z,25.30
2018-10-18T02:15:24.112Z,25.12
2018-10-18T02:16:28.841Z,25.52
2018-10-18T02:17:32.461Z,25.50
2018-10-18T02:18:35.942Z,25.60
2018-10-18T02:19:40.090Z,24.80
2018-10-18T02:20:44.519Z,25.52
2018-10-18T02:21:48.131Z,23.57
2018-10-18T02:22:52.240Z,25.02
2018-10-18T02:23:55.763Z,24.47
2018-10-18T02:24:59.810Z,23.27
2018-10-18T02:26:03.319Z,25.32
2018-10-18T02:27:06.888Z,24.85
2018-10-18T02:28:11.056Z,25.02
2018-10-18T02:29:14.575Z,24.27
2018-10-18T02:30:18.222Z,24.32
2018-10-18T02:31:21.730Z,24.23
2018-10-18T02:32:25.448Z,22.50
2018-10-18T02:33:29.095Z,22.65
2018-10-18T02:34:32.589Z,24.60
2018-10-18T02:35:36.244Z,23.50
2018-10-18T02:36:39.718Z,22.27
2018-10-18T02:37:43.221Z,23.10
2018-10-18T02:38:47.460Z,22.67
2018-10-18T02:39:51.780Z,21.27
2018-10-18T02:40:55.382Z,22.45
2018-10-18T02:41:59.569Z,24.92
2018-10-18T02:43:03.119Z,23.52
2018-10-18T02:44:06.898Z,23.65
2018-10-18T02:45:11.123Z,22.87
2018-10-18T02:46:14.653Z,21.85
2018-10-18T02:47:18.211Z,22.80
2018-10-18T02:48:21.703Z,23.45
2018-10-18T02:49:25.531Z,21.12
2018-10-18T02:50:29.377Z,20.97
2018-10-18T02:51:32.914Z,21.90
2018-10-18T02:52:36.969Z,22.48
2018-10-18T02:53:40.491Z,21.50
2018-10-18T02:54:44.782Z,21.07
2018-10-18T02:55:48.282Z,22.85
2018-10-18T02:56:51.761Z,21.48
2018-10-18T02:57:55.907Z,22.27
2018-10-18T02:58:59.470Z,20.97
2018-10-18T03:00:03.163Z,22.10
2018-10-18T03:01:06.694Z,21.50
2018-10-18T03:02:10.621Z,19.75
2018-10-18T03:03:14.192Z,23.42
2018-10-18T03:04:17.666Z,22.13
2018-10-18T03:05:22.219Z,21.50
2018-10-18T03:06:25.688Z,22.17
2018-10-18T03:07:29.416Z,21.68
2018-10-18T03:08:32.946Z,23.40
2018-10-18T03:09:36.428Z,22.13
2018-10-18T03:10:39.946Z,20.80
2018-10-18T03:11:43.409Z,22.73
2018-10-18T03:12:47.038Z,20.82
2018-10-18T03:13:50.585Z,21.68
2018-10-18T03:14:54.241Z,21.23
2018-10-18T03:15:59.031Z,21.70
2018-10-18T03:17:02.671Z,22.52
2018-10-18T03:18:07.688Z,21.15
2018-10-18T03:19:11.731Z,21.57
2018-10-18T03:20:15.325Z,22.77
2018-10-18T03:21:18.795Z,24.50
2018-10-18T03:22:22.928Z,22.20
2018-10-18T03:23:26.392Z,21.73
2018-10-18T03:24:29.884Z,23.25
2018-10-18T03:25:33.408Z,22.80
2018-10-18T03:26:36.904Z,22.10
2018-10-18T03:27:40.963Z,23.12
2018-10-18T03:28:45.184Z,22.45
2018-10-18T03:29:48.664Z,22.05
2018-10-18T03:30:53.176Z,23.00
2018-10-18T03:31:56.718Z,22.07
2018-10-18T03:33:00.224Z,22.67
2018-10-18T03:34:03.701Z,20.02
2018-10-18T03:35:08.117Z,20.72
2018-10-18T03:36:11.916Z,19.85
2018-10-18T03:37:15.500Z,20.88
2018-10-18T03:38:18.947Z,22.07
2018-10-18T03:39:22.453Z,19.92
2018-10-18T03:40:25.959Z,21.80
2018-10-18T03:41:29.670Z,20.30
2018-10-18T03:42:33.090Z,22.45
2018-10-18T03:43:36.533Z,18.90
2018-10-18T03:44:39.972Z,20.65
2018-10-18T03:45:43.632Z,22.02
2018-10-18T03:46:47.106Z,20.57
2018-10-18T03:47:50.577Z,20.25
2018-10-18T03:48:54.053Z,20.55
2018-10-18T03:49:58.398Z,20.15
2018-10-18T03:51:02.619Z,19.00
2018-10-18T03:52:07.095Z,18.73
2018-10-18T03:54:26.612Z,19.73
2018-10-18T03:55:30.107Z,18.65
2018-10-18T03:56:33.671Z,18.60
2018-10-18T03:57:37.172Z,18.48
2018-10-18T03:58:40.703Z,20.40
2018-10-18T03:59:44.343Z,19.37
2018-10-18T04:00:48.107Z,20.27
2018-10-18T04:01:51.699Z,19.55
2018-10-18T04:02:55.225Z,19.62
2018-10-18T04:03:58.786Z,19.27
2018-10-18T04:05:02.305Z,18.70
2018-10-18T04:06:06.022Z,19.60
2018-10-18T04:07:09.971Z,19.45
2018-10-18T04:08:13.457Z,19.35
2018-10-18T04:09:16.994Z,19.95
2018-10-18T04:10:20.575Z,17.90
2018-10-18T04:11:24.125Z,19.15
2018-10-18T04:12:27.639Z,19.12
2018-10-18T04:13:31.461Z,19.20
2018-10-18T04:14:35.049Z,18.77
2018-10-18T04:15:38.594Z,17.48
2018-10-18T04:16:42.132Z,19.23
2018-10-18T04:17:45.926Z,18.23
2018-10-18T04:18:50.407Z,19.27
2018-10-18T04:19:54.076Z,16.93
2018-10-18T04:20:57.624Z,16.93
2018-10-18T04:22:01.328Z,16.12
2018-10-18T04:23:05.425Z,16.35
2018-10-18T04:24:11.087Z,17.48
2018-10-18T04:25:14.513Z,15.80
2018-10-18T04:26:18.075Z,15.43
2018-10-18T04:27:21.596Z,15.85
2018-10-18T04:28:25.285Z,16.15
2018-10-18T04:29:28.941Z,16.70
2018-10-18T04:30:33.782Z,15.75
2018-10-18T04:31:38.516Z,15.63
2018-10-18T04:32:42.223Z,14.30
2018-10-18T04:33:45.773Z,14.98
2018-10-18T04:34:49.688Z,15.23
2018-10-18T04:35:53.795Z,13.95
2018-10-18T04:36:58.075Z,14.03
2018-10-18T04:38:02.148Z,14.20
2018-10-18T04:39:08.552Z,14.60
2018-10-18T04:40:12.557Z,13.50
2018-10-18T04:41:16.313Z,14.80
2018-10-18T04:42:19.918Z,15.08
2018-10-18T04:43:23.454Z,14.90
2018-10-18T04:44:27.000Z,14.07
2018-10-18T04:45:31.245Z,14.35
2018-10-18T04:46:34.954Z,13.45
2018-10-18T04:47:38.670Z,14.35
2018-10-18T04:48:42.188Z,14.18
2018-10-18T04:49:46.148Z,13.53
2018-10-18T04:50:49.893Z,14.20
2018-10-18T04:51:53.464Z,14.20
2018-10-18T04:52:57.955Z,14.45
2018-10-18T04:54:02.342Z,15.63
2018-10-18T04:55:06.324Z,13.30
2018-10-18T04:56:09.821Z,14.10
2018-10-18T04:57:14.010Z,14.25
2018-10-18T04:58:17.560Z,16.70
2018-10-18T04:59:21.124Z,14.93
2018-10-18T05:00:24.795Z,15.58
2018-10-18T05:01:29.016Z,15.98
2018-10-18T05:02:32.633Z,16.35
2018-10-18T05:03:37.811Z,16.80
2018-10-18T05:04:51.415Z,15.23
2018-10-18T05:05:58.597Z,17.17
2018-10-18T05:07:02.315Z,15.13
2018-10-18T05:08:05.924Z,15.95
2018-10-18T05:09:09.469Z,16.67
2018-10-18T05:10:13.386Z,18.00
2018-10-18T05:11:16.933Z,17.35
2018-10-18T05:12:20.591Z,16.37
2018-10-18T05:13:24.402Z,15.55
2018-10-18T05:14:28.123Z,16.35
2018-10-18T05:15:32.528Z,15.85
2018-10-18T05:16:36.138Z,18.93
2018-10-18T05:17:39.771Z,16.60
2018-10-18T05:18:43.327Z,15.68
2018-10-18T05:19:46.904Z,16.77
2018-10-18T05:20:50.832Z,17.40
2018-10-18T05:21:54.498Z,16.65
2018-10-18T05:22:58.056Z,15.38
2018-10-18T05:24:01.575Z,16.32
2018-10-18T05:25:05.752Z,15.70
2018-10-18T05:26:09.866Z,15.40
2018-10-18T05:27:13.503Z,15.40
2018-10-18T05:28:17.058Z,16.67
2018-10-18T05:29:20.697Z,15.23
2018-10-18T05:30:24.230Z,15.20
2018-10-18T05:31:27.970Z,17.27
2018-10-18T05:32:31.741Z,15.70
2018-10-18T05:33:35.438Z,15.48
2018-10-18T05:34:39.586Z,15.32
2018-10-18T05:35:43.153Z,15.45
2018-10-18T05:36:47.673Z,15.13
2018-10-18T05:37:51.485Z,14.00
2018-10-18T05:38:55.143Z,16.02
2018-10-18T05:39:59.246Z,15.83
2018-10-18T05:41:02.829Z,14.43
2018-10-18T05:42:06.551Z,14.83
2018-10-18T05:44:18.060Z,15.60
2018-10-18T05:45:21.906Z,15.40
2018-10-18T05:46:26.409Z,13.95
2018-10-18T05:47:30.528Z,15.65
2018-10-18T05:48:34.095Z,15.15
2018-10-18T05:49:37.641Z,15.00
2018-10-18T05:50:41.399Z,14.07
2018-10-18T05:51:47.193Z,15.43
2018-10-18T05:52:50.843Z,15.58
2018-10-18T05:53:54.531Z,17.10
2018-10-18T05:54:58.638Z,15.72
2018-10-18T05:56:03.007Z,15.05
2018-10-18T05:57:07.073Z,17.32
2018-10-18T05:58:10.968Z,16.37
2018-10-18T05:59:15.213Z,17.30
2018-10-18T06:00:19.411Z,17.23
2018-10-18T06:01:22.952Z,17.57
2018-10-18T06:02:26.996Z,16.93
2018-10-18T06:03:30.542Z,16.40
2018-10-18T06:04:34.293Z,18.45
2018-10-18T06:05:37.925Z,16.70
2018-10-18T06:06:41.704Z,18.02
2018-10-18T06:07:45.626Z,17.50
2018-10-18T06:08:49.356Z,18.17
2018-10-18T06:09:53.019Z,17.97
2018-10-18T06:11:07.901Z,17.20
2018-10-18T06:12:11.662Z,17.77
2018-10-18T06:13:15.295Z,17.82
2018-10-18T06:14:18.745Z,18.12
2018-10-18T06:15:23.020Z,17.67
2018-10-18T06:16:26.875Z,17.43
2018-10-18T06:17:30.445Z,15.90
2018-10-18T06:18:34.056Z,18.80
2018-10-18T06:19:37.677Z,17.03
2018-10-18T06:20:41.926Z,16.77
2018-10-18T06:21:45.958Z,16.67
2018-10-18T06:22:49.670Z,16.70
2018-10-18T06:23:53.255Z,18.32
2018-10-18T06:24:57.673Z,15.58
2018-10-18T06:26:01.543Z,15.68
2018-10-18T06:27:05.447Z,16.20
2018-10-18T06:28:09.021Z,15.80
2018-10-18T06:29:12.680Z,15.75
2018-10-18T06:30:17.178Z,15.53
2018-10-18T06:31:20.897Z,15.60
2018-10-18T06:32:24.697Z,15.53
2018-10-18T06:33:28.274Z,14.43
2018-10-18T06:34:32.126Z,13.83
2018-10-18T06:35:35.670Z,15.80
2018-10-18T06:36:39.411Z,14.25
2018-10-18T06:37:42.993Z,14.90
2018-10-18T06:38:46.675Z,14.33
2018-10-18T06:39:50.212Z,14.38
2018-10-18T06:40:54.449Z,15.08
2018-10-18T06:42:00.041Z,15.50
2018-10-18T06:43:03.694Z,15.67
2018-10-18T06:44:07.356Z,14.58
2018-10-18T06:45:12.550Z,14.63
2018-10-18T06:46:17.438Z,14.78
2018-10-18T06:47:21.734Z,16.30
2018-10-18T06:48:25.407Z,15.32
2018-10-18T06:49:29.557Z,15.48
2018-10-18T06:50:33.052Z,14.38
2018-10-18T06:51:36.543Z,15.15
2018-10-18T06:52:40.494Z,14.43
2018-10-18T06:53:44.034Z,15.32
2018-10-18T06:54:47.713Z,14.63
2018-10-18T06:55:51.580Z,14.98
2018-10-18T06:56:55.080Z,15.50
2018-10-18T06:57:58.947Z,15.43
2018-10-18T06:59:03.302Z,16.12
2018-10-18T07:00:09.496Z,14.07
2018-10-18T07:01:13.225Z,14.78
2018-10-18T07:02:16.798Z,14.18
2018-10-18T07:03:20.981Z,14.75
2018-10-18T07:07:49.679Z,13.77
2018-10-18T07:08:53.551Z,13.22
2018-10-18T07:09:59.160Z,13.00
2018-10-18T07:11:03.011Z,13.20
2018-10-18T07:12:07.021Z,12.80
2018-10-18T07:13:11.260Z,12.00
2018-10-18T07:14:15.353Z,12.60
2018-10-18T07:15:18.955Z,12.65
2018-10-18T07:16:23.919Z,13.22
2018-10-18T07:17:27.684Z,12.07
2018-10-18T07:18:31.234Z,12.37
2018-10-18T07:19:34.910Z,12.30
2018-10-18T07:20:38.530Z,12.20
2018-10-18T07:21:42.076Z,13.63
2018-10-18T07:22:46.003Z,12.90
2018-10-18T07:23:49.544Z,12.20
2018-10-18T07:24:53.360Z,12.53
2018-10-18T07:25:57.536Z,13.10
2018-10-18T07:27:01.752Z,12.88
2018-10-18T07:28:06.584Z,12.43
2018-10-18T07:29:10.235Z,11.70
2018-10-18T07:30:15.273Z,11.45
2018-10-18T07:31:19.284Z,11.60
2018-10-18T07:32:22.931Z,11.15
2018-10-18T07:33:26.611Z,11.43
2018-10-18T07:34:30.357Z,10.90
2018-10-18T07:35:34.041Z,10.70
2018-10-18T07:36:37.736Z,10.40
2018-10-18T07:37:41.342Z,11.48
2018-10-18T07:38:44.930Z,11.40
2018-10-18T07:39:48.527Z,10.55
2018-10-18T07:40:52.757Z,10.68
2018-10-18T07:41:56.446Z,11.40
2018-10-18T07:43:00.773Z,10.88
2018-10-18T07:44:04.658Z,10.30
2018-10-18T07:45:09.234Z,10.70
2018-10-18T07:46:13.007Z,10.00
2018-10-18T07:47:16.625Z,10.72
2018-10-18T07:48:20.626Z,10.45
2018-10-18T07:49:25.350Z,10.88
2018-10-18T07:50:29.099Z,10.70
2018-10-18T07:51:32.656Z,9.95
2018-10-18T07:52:36.745Z,9.35
2018-10-18T07:53:40.416Z,10.50
2018-10-18T07:54:44.700Z,10.43
2018-10-18T07:55:48.326Z,10.38
2018-10-18T07:56:52.969Z,10.05
2018-10-18T07:57:56.597Z,10.80
2018-10-18T07:59:01.146Z,11.33
2018-10-18T08:00:06.175Z,11.28
2018-10-18T08:01:10.292Z,9.80
2018-10-18T08:02:14.032Z,10.20
2018-10-18T08:03:17.596Z,10.10
2018-10-18T08:04:21.210Z,11.45
2018-10-18T08:05:24.724Z,11.30
2018-10-18T08:06:28.920Z,12.43
2018-10-18T08:07:32.520Z,10.20
2018-10-18T08:08:36.179Z,9.78
2018-10-18T08:09:40.362Z,10.80
2018-10-18T08:10:43.881Z,10.40
2018-10-18T08:11:47.991Z,10.58
2018-10-18T08:12:51.559Z,10.32
2018-10-18T08:13:55.754Z,10.43
2018-10-18T08:14:59.909Z,10.10
2018-10-18T08:16:04.453Z,10.10
2018-10-18T08:17:08.275Z,9.55
2018-10-18T08:18:12.116Z,10.32
2018-10-18T08:19:15.900Z,10.50
2018-10-18T08:20:19.575Z,10.45
2018-10-18T08:21:24.604Z,9.78
2018-10-18T08:22:28.261Z,9.73
2018-10-18T08:23:32.314Z,9.23
2018-10-18T08:24:35.852Z,10.18
2018-10-18T08:25:39.473Z,9.53
2018-10-18T08:26:51.203Z,8.88
2018-10-18T08:28:03.080Z,10.30
2018-10-18T08:29:13.992Z,9.43
2018-10-18T08:30:17.804Z,9.35
2018-10-18T08:31:21.484Z,9.98
2018-10-18T08:32:25.617Z,10.15
2018-10-18T08:33:29.213Z,9.65
2018-10-18T08:34:32.872Z,9.93
2018-10-18T08:35:36.569Z,9.43
2018-10-18T08:36:40.228Z,8.53
2018-10-18T08:37:44.055Z,8.08
2018-10-18T08:38:48.119Z,8.55
2018-10-18T08:39:51.744Z,7.95
2018-10-18T08:40:55.359Z,6.75
2018-10-18T08:41:58.953Z,7.08
2018-10-18T08:43:02.748Z,7.87
2018-10-18T08:44:06.484Z,6.35
2018-10-18T08:45:11.196Z,7.83
2018-10-18T08:46:14.965Z,8.10
2018-10-18T08:47:19.161Z,7.65
2018-10-18T08:48:23.718Z,7.90
2018-10-18T08:49:27.329Z,7.72
2018-10-18T08:50:32.052Z,7.75
2018-10-18T08:51:36.713Z,8.13
2018-10-18T08:52:40.896Z,8.70
2018-10-18T08:53:44.596Z,7.75
2018-10-18T08:54:48.581Z,8.33
2018-10-18T08:55:52.098Z,8.55
2018-10-18T08:56:58.121Z,7.72
2018-10-18T08:58:01.687Z,8.90
2018-10-18T08:59:05.553Z,9.15
2018-10-18T09:00:10.689Z,8.60
2018-10-18T09:01:14.412Z,8.53
2018-10-18T09:02:17.907Z,8.45
2018-10-18T09:03:21.560Z,7.83
2018-10-18T09:04:25.180Z,8.15
2018-10-18T09:05:28.963Z,8.78
2018-10-18T09:06:33.400Z,8.75
2018-10-18T09:07:37.718Z,8.50
2018-10-18T09:08:42.220Z,8.30
2018-10-18T09:09:46.401Z,9.18
2018-10-18T09:10:50.204Z,9.48
2018-10-18T09:11:53.827Z,9.43
2018-10-18T09:12:57.738Z,8.73
2018-10-18T09:14:01.305Z,8.13
2018-10-18T09:15:05.998Z,8.18
2018-10-18T09:16:09.888Z,8.73
2018-10-18T09:17:13.799Z,8.50
2018-10-18T09:18:18.406Z,8.43
2018-10-18T09:19:22.056Z,7.25
2018-10-18T09:20:25.712Z,6.78
2018-10-18T09:21:29.256Z,7.78
2018-10-18T09:22:34.354Z,8.03
2018-10-18T09:23:38.050Z,7.53
2018-10-18T09:24:41.594Z,7.62
2018-10-18T09:25:45.279Z,8.08
2018-10-18T09:26:49.696Z,7.30
2018-10-18T09:27:53.259Z,8.33
2018-10-18T09:28:56.796Z,7.47
2018-10-18T09:30:00.405Z,8.00
2018-10-18T09:31:04.284Z,8.05
2018-10-18T09:32:09.003Z,8.20
2018-10-18T09:33:12.697Z,7.58
2018-10-18T09:34:17.307Z,7.50
2018-10-18T09:35:21.734Z,6.78
2018-10-18T09:36:25.756Z,8.73
2018-10-18T09:37:29.379Z,7.67
2018-10-18T09:38:33.015Z,8.28
2018-10-18T09:39:37.251Z,8.85
2018-10-18T09:40:42.176Z,8.20
2018-10-18T09:41:46.057Z,7.53
2018-10-18T09:42:49.736Z,7.97
2018-10-18T09:43:58.394Z,7.62
2018-10-18T09:45:02.058Z,7.65
2018-10-18T09:46:06.624Z,7.80
2018-10-18T09:47:10.224Z,8.70
2018-10-18T09:48:14.065Z,9.13
2018-10-18T09:49:17.788Z,9.13
2018-10-18T09:50:21.392Z,8.28
2018-10-18T09:51:25.150Z,9.83
2018-10-18T09:52:28.822Z,8.25
2018-10-18T09:53:32.436Z,9.80
2018-10-18T09:54:36.089Z,8.25
2018-10-18T09:55:40.220Z,8.33
2018-10-18T09:56:43.819Z,9.65
2018-10-18T09:57:47.509Z,9.43
2018-10-18T09:58:52.865Z,9.60
2018-10-18T09:59:56.937Z,9.18
2018-10-18T10:01:06.494Z,8.30
2018-10-18T10:02:15.312Z,7.80
2018-10-18T10:03:19.482Z,8.00
2018-10-18T10:04:23.283Z,8.20
2018-10-18T10:05:26.969Z,7.55
2018-10-18T10:06:31.380Z,7.55
2018-10-18T10:07:35.150Z,8.18
2018-10-18T10:08:38.762Z,8.63
2018-10-18T10:09:42.818Z,8.90
2018-10-18T10:10:46.486Z,7.85
2018-10-18T10:11:50.950Z,8.13
2018-10-18T10:12:54.845Z,7.92
2018-10-18T10:13:59.838Z,8.40
2018-10-18T10:15:04.328Z,7.87
2018-10-18T10:16:07.881Z,7.05
2018-10-18T10:17:11.603Z,7.22
2018-10-18T10:18:15.307Z,7.72
2018-10-18T10:19:18.993Z,6.97
2018-10-18T10:20:22.592Z,7.80
2018-10-18T10:21:26.263Z,7.97
2018-10-18T10:22:30.276Z,7.17
2018-10-18T10:23:33.784Z,9.25
2018-10-18T10:24:37.381Z,8.28
2018-10-18T10:25:40.858Z,8.75
2018-10-18T10:26:44.429Z,8.55
2018-10-18T10:27:47.984Z,8.98
2018-10-18T10:28:51.768Z,8.15
2018-10-18T10:29:55.389Z,8.63
2018-10-18T10:30:59.049Z,9.15
2018-10-18T10:32:02.785Z,9.05
2018-10-18T10:33:06.545Z,9.05
2018-10-18T10:34:09.944Z,9.58
2018-10-18T10:35:13.674Z,9.15
2018-10-18T10:36:17.254Z,9.18
2018-10-18T10:37:20.806Z,8.48
2018-10-18T10:38:24.392Z,8.20
2018-10-18T10:39:27.999Z,7.87
2018-10-18T10:40:31.691Z,9.90
2018-10-18T10:41:35.237Z,8.83
2018-10-18T10:42:39.614Z,9.10
2018-10-18T10:43:43.167Z,9.50
2018-10-18T10:44:47.524Z,10.28
2018-10-18T10:45:51.136Z,9.93
2018-10-18T10:46:54.812Z,9.60
2018-10-18T10:47:58.568Z,10.25
2018-10-18T10:49:02.626Z,9.73
2018-10-18T10:50:06.880Z,10.00
2018-10-18T10:51:10.493Z,8.88
2018-10-18T10:52:14.605Z,9.43
2018-10-18T10:53:18.195Z,10.30
2018-10-18T10:54:21.864Z,10.53
2018-10-18T10:55:25.528Z,10.70
2018-10-18T10:56:29.591Z,10.50
2018-10-18T10:57:33.226Z,9.95
2018-10-18T10:58:37.823Z,10.00
2018-10-18T10:59:41.380Z,9.43
2018-10-18T11:01:21.659Z,10.03
2018-10-18T11:02:25.216Z,8.28
2018-10-18T11:03:29.338Z,8.63
2018-10-18T11:04:33.053Z,8.53
2018-10-18T11:05:36.755Z,9.25
2018-10-18T11:06:40.475Z,8.68
2018-10-18T11:07:44.071Z,9.40
2018-10-18T11:08:47.903Z,9.65
2018-10-18T11:09:51.520Z,8.83
2018-10-18T11:10:55.368Z,9.48
2018-10-18T11:11:59.107Z,10.13
2018-10-18T11:13:03.161Z,10.23
2018-10-18T11:14:07.058Z,9.43
2018-10-18T11:15:10.817Z,9.98
2018-10-18T11:16:15.163Z,9.45
2018-10-18T11:17:18.815Z,9.78
2018-10-18T11:18:22.721Z,9.65
2018-10-18T11:19:26.259Z,8.80
2018-10-18T11:20:30.114Z,9.50
2018-10-18T11:21:34.246Z,9.58
2018-10-18T11:22:37.924Z,8.88
2018-10-18T11:23:42.218Z,8.75
2018-10-18T11:24:45.823Z,8.60
2018-10-18T11:25:49.668Z,7.78
2018-10-18T11:26:53.429Z,7.47
2018-10-18T11:27:57.068Z,7.33
2018-10-18T11:29:00.662Z,7.72
2018-10-18T11:30:04.701Z,6.90
2018-10-18T11:31:08.379Z,5.80
2018-10-18T11:32:12.083Z,6.87
2018-10-18T11:33:15.736Z,6.05
2018-10-18T11:34:19.970Z,6.95
2018-10-18T11:35:23.472Z,5.78
2018-10-18T11:36:27.001Z,5.67
2018-10-18T11:37:30.566Z,6.42
2018-10-18T11:38:34.187Z,5.70
2018-10-18T11:39:38.489Z,5.50
2018-10-18T11:40:42.306Z,5.80
2018-10-18T11:41:45.929Z,5.12
2018-10-18T11:42:49.741Z,4.95
2018-10-18T11:43:53.286Z,4.80
2018-10-18T11:44:57.001Z,5.00
2018-10-18T11:46:00.623Z,5.67
2018-10-18T11:47:04.556Z,5.42
2018-10-18T11:48:09.616Z,4.20
2018-10-18T11:49:13.304Z,3.90
2018-10-18T11:50:17.111Z,4.45
2018-10-18T11:51:20.610Z,4.58
2018-10-18T11:52:24.201Z,4.45
2018-10-18T11:53:27.987Z,4.42
2018-10-18T11:54:31.571Z,4.65
2018-10-18T11:55:35.709Z,4.87
2018-10-18T11:56:39.974Z,4.72
2018-10-18T11:57:43.578Z,4.67
2018-10-18T11:58:47.345Z,4.95
2018-10-18T11:59:50.992Z,5.35
2018-10-18T12:00:54.923Z,5.30
2018-10-18T12:01:58.520Z,5.15
2018-10-18T12:03:02.843Z,4.92
2018-10-18T12:04:06.612Z,5.45
2018-10-18T12:05:10.562Z,5.40
2018-10-18T12:06:14.367Z,6.62
2018-10-18T12:07:18.094Z,7.20
2018-10-18T12:08:22.206Z,6.95
2018-10-18T12:09:25.793Z,7.25
2018-10-18T12:10:29.478Z,7.28
2018-10-18T12:11:33.235Z,7.97
2018-10-18T12:12:37.358Z,7.33
2018-10-18T12:13:41.532Z,8.80
2018-10-18T12:14:45.178Z,8.13
2018-10-18T12:15:49.079Z,7.42
2018-10-18T12:16:52.881Z,7.50
2018-10-18T12:17:56.707Z,7.30
2018-10-18T12:19:01.191Z,7.33
2018-10-18T12:20:06.393Z,7.62
2018-10-18T12:21:10.056Z,7.67
2018-10-18T12:22:14.333Z,7.08
2018-10-18T12:23:17.996Z,7.30
2018-10-18T12:24:22.604Z,7.42
2018-10-18T12:25:26.829Z,7.33
2018-10-18T12:26:31.008Z,6.50
2018-10-18T12:27:34.952Z,6.30
2018-10-18T12:28:38.662Z,7.12
2018-10-18T12:29:43.044Z,7.17
2018-10-18T12:30:46.692Z,6.80
2018-10-18T12:31:50.345Z,7.78
2018-10-18T12:32:54.062Z,8.05
2018-10-18T12:33:57.764Z,8.18
2018-10-18T12:35:01.387Z,6.90
2018-10-18T12:36:05.009Z,7.10
2018-10-18T12:37:08.645Z,6.90
2018-10-18T12:38:12.491Z,7.28
2018-10-18T12:39:16.204Z,7.10
2018-10-18T12:40:19.915Z,6.62
2018-10-18T12:41:23.795Z,6.78
2018-10-18T12:42:27.229Z,6.40
2018-10-18T12:43:31.379Z,6.78
2018-10-18T12:44:41.410Z,6.12
2018-10-18T12:45:44.961Z,6.10
2018-10-18T12:46:49.525Z,6.00
2018-10-18T12:47:53.240Z,6.60
2018-10-18T12:48:58.082Z,5.72
2018-10-18T12:50:01.808Z,5.12
2018-10-18T12:51:05.594Z,5.92
2018-10-18T12:52:11.179Z,5.95
2018-10-18T12:53:14.754Z,6.20
2018-10-18T12:54:18.334Z,5.95
2018-10-18T12:55:21.885Z,5.85
2018-10-18T12:56:25.462Z,6.30
2018-10-18T12:57:30.046Z,6.12
2018-10-18T12:58:33.973Z,6.10
2018-10-18T12:59:37.658Z,6.03
2018-10-18T13:00:41.310Z,6.45
2018-10-18T13:01:44.950Z,6.45
2018-10-18T13:02:48.790Z,5.05
2018-10-18T13:03:52.503Z,5.75
2018-10-18T13:04:56.189Z,4.60
2018-10-18T13:06:00.517Z,4.60
2018-10-18T13:07:04.608Z,4.00
2018-10-18T13:08:08.515Z,3.62
2018-10-18T13:09:12.727Z,4.00
2018-10-18T13:10:16.303Z,4.12
2018-10-18T13:11:20.847Z,4.42
2018-10-18T13:12:24.478Z,3.77
2018-10-18T13:13:37.637Z,4.40
2018-10-18T13:14:41.848Z,3.40
2018-10-18T13:15:45.642Z,3.75
2018-10-18T13:16:49.313Z,3.60
2018-10-18T13:17:52.970Z,3.90
2018-10-18T13:18:57.729Z,3.95
2018-10-18T13:20:01.493Z,3.65
2018-10-18T13:21:05.641Z,3.90
2018-10-18T13:22:09.496Z,3.83
2018-10-18T13:23:13.190Z,3.40
2018-10-18T13:24:16.903Z,3.90
2018-10-18T13:25:20.547Z,3.40
2018-10-18T13:26:24.130Z,3.65
2018-10-18T13:27:27.703Z,4.20
2018-10-18T13:28:31.324Z,3.37
2018-10-18T13:29:34.827Z,3.87
2018-10-18T13:30:38.423Z,3.80
2018-10-18T13:31:41.964Z,3.50
2018-10-18T13:32:46.202Z,4.03
2018-10-18T13:33:49.861Z,4.47
2018-10-18T13:34:53.570Z,3.50
2018-10-18T13:36:07.825Z,3.27
2018-10-18T13:37:11.652Z,3.90
2018-10-18T13:38:15.419Z,3.12
2018-10-18T13:39:19.831Z,3.10
2018-10-18T13:40:23.626Z,3.67
2018-10-18T13:41:27.721Z,3.42
2018-10-18T13:42:31.323Z,4.72
2018-10-18T13:43:34.921Z,4.33
2018-10-18T13:44:38.525Z,3.02
2018-10-18T13:45:42.213Z,3.30
2018-10-18T13:46:46.420Z,4.50
2018-10-18T13:47:50.174Z,4.08
2018-10-18T13:48:53.694Z,4.90
2018-10-18T13:49:58.000Z,3.83
2018-10-18T13:51:01.473Z,4.92
2018-10-18T13:52:05.200Z,4.30
2018-10-18T13:53:08.867Z,4.70
2018-10-18T13:54:12.663Z,5.65
2018-10-18T13:55:16.239Z,5.47
2018-10-18T13:56:19.830Z,6.00
2018-10-18T13:57:23.474Z,6.35
2018-10-18T13:58:27.158Z,6.63
2018-10-18T13:59:42.308Z,5.67
2018-10-18T14:00:46.422Z,6.12